Time;durP1;ratioP1;P1;durP2;ratioP2;P2;SDS_P1;SDS_P2;PMS_P1;PMS_P2;Temp;Humidity;BMP_temperature;BMP_pressure;BME280_temperature;BME280_humidity;BME280_pressure;Samples;Min_cycle;Max_cycle;Signal;HPM_P1;HPM_P2
2022/01/25 00:10:14;;;;;;;34.10;20.45;;;;;;;;;;5009999;28;20494;-71
2022/01/25 00:28:44;;;;;;;36.50;22.27;;;;;;;;;;5007139;28;20108;-71
2022/01/25 00:31:14;;;;;;;37.35;22.52;;;;;;;;;;5012888;28;20088;-72
2022/01/25 00:33:42;;;;;;;36.53;21.35;;;;;;;;;;5013523;28;20054;-72
2022/01/25 00:36:10;;;;;;;35.40;20.65;;;;;;;;;;5002190;28;20049;-71
2022/01/25 00:38:37;;;;;;;35.67;22.65;;;;;;;;;;5013316;28;20053;-71
2022/01/25 00:41:03;;;;;;;37.33;22.55;;;;;;;;;;5000265;28;20054;-72
2022/01/25 00:43:30;;;;;;;35.78;22.23;;;;;;;;;;5013170;28;20196;-71
2022/01/25 00:46:01;;;;;;;38.42;22.30;;;;;;;;;;5000185;28;20135;-71
2022/01/25 00:53:59;;;;;;;35.22;20.73;;;;;;;;;;5011920;28;20386;-72
2022/01/25 00:56:31;;;;;;;35.40;22.20;;;;;;;;;;4999465;28;20049;-72
2022/01/25 00:58:59;;;;;;;36.30;20.60;;;;;;;;;;5013173;28;20120;-72
2022/01/25 01:01:26;;;;;;;37.38;21.50;;;;;;;;;;5011753;28;20452;-72
2022/01/25 01:03:53;;;;;;;41.40;23.00;;;;;;;;;;5012974;28;20053;-72
2022/01/25 01:06:20;;;;;;;40.97;22.90;;;;;;;;;;5010201;28;20308;-71
2022/01/25 01:08:47;;;;;;;40.83;23.63;;;;;;;;;;5012723;28;20053;-71
2022/01/25 01:11:19;;;;;;;41.70;22.90;;;;;;;;;;5009551;28;20058;-71
2022/01/25 01:38:13;;;;;;;40.35;22.48;;;;;;;;;;5012156;28;20100;-72
2022/01/25 01:48:09;;;;;;;37.65;22.15;;;;;;;;;;5012056;28;20120;-72
2022/01/25 01:50:37;;;;;;;39.75;22.17;;;;;;;;;;5011424;28;20095;-71
2022/01/25 01:53:05;;;;;;;40.97;22.98;;;;;;;;;;5011520;28;20050;-72
2022/01/25 01:55:33;;;;;;;41.88;23.58;;;;;;;;;;5000069;28;20105;-72
2022/01/25 01:57:59;;;;;;;43.17;23.65;;;;;;;;;;5009966;28;20050;-71
2022/01/25 02:00:35;;;;;;;41.60;24.02;;;;;;;;;;5010725;28;20119;-71
2022/01/25 02:03:03;;;;;;;41.47;22.83;;;;;;;;;;5012221;28;20046;-71
2022/01/25 02:05:30;;;;;;;37.47;21.98;;;;;;;;;;5009507;28;20111;-71
2022/01/25 02:07:57;;;;;;;37.92;22.48;;;;;;;;;;5010997;28;20387;-71
2022/01/25 02:10:23;;;;;;;41.78;23.70;;;;;;;;;;5009145;28;20116;-71
2022/01/25 02:12:51;;;;;;;38.45;22.48;;;;;;;;;;5011775;28;20046;-71
2022/01/25 02:15:20;;;;;;;40.72;23.15;;;;;;;;;;5010738;28;20054;-71
2022/01/25 02:22:24;;;;;;;42.08;23.33;;;;;;;;;;5010533;28;20046;-71
2022/01/25 02:23:28;;;;;;;41.88;24.55;;;;;;;;;;5011693;28;20073;-71
2022/01/25 02:25:57;;;;;;;44.15;24.20;;;;;;;;;;5002695;28;20457;-71
2022/01/25 02:28:24;;;;;;;49.78;27.60;;;;;;;;;;5011568;28;20485;-71
2022/01/25 02:30:51;;;;;;;47.58;25.13;;;;;;;;;;5011113;28;20100;-71
2022/01/25 02:33:18;;;;;;;43.35;24.77;;;;;;;;;;5011995;28;20557;-71
2022/01/25 02:35:44;;;;;;;43.30;23.02;;;;;;;;;;5010558;28;20050;-71
2022/01/25 02:38:12;;;;;;;41.15;22.63;;;;;;;;;;5011227;28;20050;-71
2022/01/25 02:40:38;;;;;;;45.90;23.90;;;;;;;;;;5000186;28;20116;-71
2022/01/25 02:43:05;;;;;;;42.65;24.92;;;;;;;;;;5015405;28;20473;-71
2022/01/25 02:45:34;;;;;;;40.90;23.73;;;;;;;;;;5014228;28;20061;-71
2022/01/25 02:50:48;;;;;;;40.72;23.27;;;;;;;;;;5013917;28;20073;-71
2022/01/25 02:53:14;;;;;;;40.75;22.00;;;;;;;;;;5015184;28;20050;-71
2022/01/25 02:55:41;;;;;;;40.58;23.58;;;;;;;;;;5010405;28;20062;-71
2022/01/25 02:58:08;;;;;;;43.28;23.52;;;;;;;;;;5014618;28;20096;-71
2022/01/25 03:00:35;;;;;;;36.58;21.60;;;;;;;;;;5014176;28;20100;-71
2022/01/25 03:03:01;;;;;;;37.47;23.23;;;;;;;;;;5015432;28;20053;-71
2022/01/25 03:05:28;;;;;;;45.30;24.10;;;;;;;;;;5014204;28;20417;-71
2022/01/25 03:07:56;;;;;;;42.13;23.58;;;;;;;;;;5015629;28;20100;-71
2022/01/25 03:10:22;;;;;;;43.28;23.73;;;;;;;;;;5012578;28;20057;-71
2022/01/25 03:12:54;;;;;;;42.17;24.13;;;;;;;;;;5015138;28;20050;-71
2022/01/25 03:17:53;;;;;;;41.47;22.10;;;;;;;;;;5014736;28;20100;-71
2022/01/25 03:20:23;;;;;;;38.25;22.65;;;;;;;;;;5005827;28;20116;-71
2022/01/25 03:22:59;;;;;;;39.28;21.70;;;;;;;;;;5015096;28;20049;-71
2022/01/25 03:25:26;;;;;;;46.10;23.88;;;;;;;;;;5013448;28;20057;-71
2022/01/25 03:27:52;;;;;;;40.25;23.40;;;;;;;;;;5014678;28;20050;-71
2022/01/25 03:30:18;;;;;;;42.10;23.60;;;;;;;;;;5004924;28;20050;-71
2022/01/25 03:32:45;;;;;;;39.45;23.02;;;;;;;;;;5014715;28;20046;-71
2022/01/25 03:35:11;;;;;;;40.78;22.48;;;;;;;;;;5013571;28;20469;-71
2022/01/25 03:37:38;;;;;;;39.33;22.27;;;;;;;;;;5014512;28;20041;-71
2022/01/25 03:40:05;;;;;;;40.15;23.13;;;;;;;;;;5006427;28;20058;-71
2022/01/25 03:42:36;;;;;;;42.28;23.13;;;;;;;;;;5011319;28;20399;-71
2022/01/25 03:45:03;;;;;;;42.88;23.80;;;;;;;;;;5006727;28;20487;-71
2022/01/25 03:47:43;;;;;;;41.53;24.20;;;;;;;;;;5009681;28;20391;-71
2022/01/25 03:50:10;;;;;;;42.67;24.08;;;;;;;;;;5005797;28;20469;-71
2022/01/25 03:52:37;;;;;;;39.65;23.25;;;;;;;;;;5009436;28;20080;-71
2022/01/25 03:55:04;;;;;;;40.13;23.37;;;;;;;;;;5006698;28;20093;-71
2022/01/25 03:57:31;;;;;;;40.67;23.27;;;;;;;;;;5008664;28;20473;-71
2022/01/25 03:59:59;;;;;;;40.17;21.77;;;;;;;;;;5012785;28;20116;-71
2022/01/25 04:02:28;;;;;;;40.42;23.10;;;;;;;;;;5013031;28;20192;-71
2022/01/25 04:04:57;;;;;;;43.05;22.75;;;;;;;;;;5012965;28;20080;-71
2022/01/25 04:07:31;;;;;;;;;;;;;;;;;;5014114;28;20046;-71
2022/01/25 04:09:57;;;;;;;38.58;21.65;;;;;;;;;;5012407;28;20443;-71
2022/01/25 04:12:24;;;;;;;43.15;24.10;;;;;;;;;;5012920;28;20046;-71
2022/01/25 04:14:50;;;;;;;41.50;22.77;;;;;;;;;;5007851;28;20039;-71
2022/01/25 04:17:20;;;;;;;42.67;23.75;;;;;;;;;;5013224;28;20490;-71
2022/01/25 04:20:08;;;;;;;43.00;24.13;;;;;;;;;;5009533;28;20518;-71
2022/01/25 04:25:18;;;;;;;43.50;24.63;;;;;;;;;;5012742;28;20053;-72
2022/01/25 04:27:44;;;;;;;39.78;22.48;;;;;;;;;;5013783;28;20046;-72
2022/01/25 04:30:11;;;;;;;40.67;23.70;;;;;;;;;;5012088;28;20740;-71
2022/01/25 04:32:44;;;;;;;42.67;24.05;;;;;;;;;;5013635;28;20096;-72
2022/01/25 04:35:26;;;;;;;41.33;24.35;;;;;;;;;;5012500;28;20042;-71
2022/01/25 04:49:11;;;;;;;42.03;23.60;;;;;;;;;;5013303;28;20057;-71
2022/01/25 04:51:55;;;;;;;41.53;23.52;;;;;;;;;;5002718;28;20042;-71
2022/01/25 04:57:40;;;;;;;39.05;22.15;;;;;;;;;;5007614;28;20095;-71
2022/01/25 05:00:20;;;;;;;39.63;22.42;;;;;;;;;;5004875;28;20058;-71
2022/01/25 05:05:32;;;;;;;40.65;22.45;;;;;;;;;;5010788;28;20429;-72
2022/01/25 05:11:02;;;;;;;39.97;22.92;;;;;;;;;;5011447;28;20479;-72
2022/01/25 05:16:38;;;;;;;43.15;23.42;;;;;;;;;;5010388;28;20092;-72
2022/01/25 05:19:22;;;;;;;44.65;23.52;;;;;;;;;;5012582;28;20108;-72
2022/01/25 05:22:07;;;;;;;45.67;24.40;;;;;;;;;;5011975;28;20104;-72
2022/01/25 05:24:35;;;;;;;41.05;23.25;;;;;;;;;;5009943;28;20451;-72
2022/01/25 05:27:03;;;;;;;45.17;23.98;;;;;;;;;;5012575;28;20406;-72
2022/01/25 05:29:30;;;;;;;;;;;;;;;;;;5010058;28;20041;-72
2022/01/25 05:31:57;;;;;;;40.63;22.67;;;;;;;;;;5012267;28;19925;-71
2022/01/25 05:34:23;;;;;;;41.55;23.60;;;;;;;;;;5010067;28;20391;-71
2022/01/25 05:36:50;;;;;;;40.75;22.38;;;;;;;;;;5012272;28;20046;-71
2022/01/25 05:39:21;;;;;;;40.40;22.35;;;;;;;;;;5010758;28;20123;-72
2022/01/25 05:41:55;;;;;;;40.17;22.67;;;;;;;;;;5009398;28;20112;-71
2022/01/25 05:44:41;;;;;;;38.05;22.27;;;;;;;;;;5009273;28;20482;-71
2022/01/25 05:47:08;;;;;;;41.55;22.85;;;;;;;;;;5010819;28;20548;-71
2022/01/25 05:49:36;;;;;;;40.25;23.20;;;;;;;;;;5007901;28;20042;-71
2022/01/25 05:52:03;;;;;;;40.75;22.88;;;;;;;;;;5009729;28;20100;-71
2022/01/25 05:54:30;;;;;;;44.92;24.55;;;;;;;;;;5009042;28;20122;-71
2022/01/25 05:56:57;;;;;;;41.42;23.63;;;;;;;;;;5007828;28;20046;-71
2022/01/25 05:59:23;;;;;;;41.17;23.40;;;;;;;;;;5009604;28;20514;-71
2022/01/25 06:01:50;;;;;;;43.30;23.27;;;;;;;;;;5005834;28;20058;-71
2022/01/25 06:04:18;;;;;;;42.35;22.55;;;;;;;;;;5010457;28;20157;-71
2022/01/25 06:06:44;;;;;;;44.45;23.45;;;;;;;;;;5004182;28;20046;-71
2022/01/25 06:09:11;;;;;;;44.28;22.65;;;;;;;;;;5011381;28;20437;-71
2022/01/25 06:11:37;;;;;;;42.47;22.38;;;;;;;;;;5011739;28;20413;-71
2022/01/25 06:14:04;;;;;;;41.78;22.08;;;;;;;;;;5012093;28;20050;-71
2022/01/25 06:16:31;;;;;;;43.13;21.63;;;;;;;;;;5002226;28;20410;-71
2022/01/25 06:18:58;;;;;;;45.97;22.08;;;;;;;;;;5016152;28;20108;-71
2022/01/25 06:21:25;;;;;;;42.30;21.35;;;;;;;;;;5013766;28;20046;-71
2022/01/25 06:23:51;;;;;;;39.72;21.38;;;;;;;;;;5015847;28;20095;-71
2022/01/25 06:26:18;;;;;;;45.28;21.33;;;;;;;;;;5014880;28;20382;-71
2022/01/25 06:28:45;;;;;;;40.63;20.00;;;;;;;;;;5015950;28;20111;-71
2022/01/25 06:31:11;;;;;;;46.63;21.92;;;;;;;;;;5012151;28;20046;-71
2022/01/25 06:33:41;;;;;;;45.25;21.02;;;;;;;;;;5015835;28;20052;-71
2022/01/25 06:36:08;;;;;;;43.00;20.65;;;;;;;;;;5011255;28;20237;-71
2022/01/25 06:38:35;;;;;;;45.72;21.10;;;;;;;;;;5015511;28;20073;-71
2022/01/25 06:41:01;;;;;;;45.38;22.10;;;;;;;;;;5014449;28;20057;-71
2022/01/25 06:43:28;;;;;;;43.60;21.08;;;;;;;;;;5015349;28;20058;-71
2022/01/25 06:46:03;;;;;;;45.92;22.15;;;;;;;;;;5014177;28;20493;-71
2022/01/25 06:48:30;;;;;;;42.85;21.20;;;;;;;;;;5015427;28;20053;-71
2022/01/25 06:50:57;;;;;;;48.45;21.63;;;;;;;;;;5008367;28;20552;-71
2022/01/25 06:53:24;;;;;;;46.60;22.23;;;;;;;;;;5015242;28;20580;-71
2022/01/25 06:55:51;;;;;;;46.15;21.45;;;;;;;;;;5007509;28;20045;-71
2022/01/25 06:58:17;;;;;;;44.67;21.83;;;;;;;;;;5015281;28;20045;-71
2022/01/25 07:00:44;;;;;;;45.53;22.38;;;;;;;;;;5006161;28;20045;-71
2022/01/25 07:03:10;;;;;;;41.67;20.75;;;;;;;;;;5015424;28;20077;-74
2022/01/25 07:05:37;;;;;;;43.97;20.13;;;;;;;;;;5014065;28;20140;-71
2022/01/25 07:08:04;;;;;;;41.85;20.17;;;;;;;;;;5015199;28;20437;-71
2022/01/25 07:10:30;;;;;;;43.33;20.48;;;;;;;;;;5004890;28;20080;-71
2022/01/25 07:12:57;;;;;;;42.75;20.65;;;;;;;;;;5014908;28;20054;-71
2022/01/25 07:15:23;;;;;;;45.92;20.23;;;;;;;;;;5013640;28;20107;-71
2022/01/25 07:17:50;;;;;;;44.42;20.75;;;;;;;;;;5014938;28;20092;-71
2022/01/25 07:20:16;;;;;;;42.75;20.60;;;;;;;;;;5013836;28;20130;-71
2022/01/25 07:22:43;;;;;;;44.97;20.92;;;;;;;;;;5014277;28;20057;-69
2022/01/25 07:25:10;;;;;;;43.92;21.75;;;;;;;;;;5013676;28;20076;-69
2022/01/25 07:27:37;;;;;;;43.63;21.63;;;;;;;;;;5013124;28;20096;-70
2022/01/25 07:30:05;;;;;;;42.65;19.88;;;;;;;;;;5012576;28;20088;-68
2022/01/25 07:32:32;;;;;;;49.50;21.88;;;;;;;;;;5014299;28;20506;-68
2022/01/25 07:35:02;;;;;;;47.15;21.98;;;;;;;;;;5013699;28;20046;-69
2022/01/25 07:37:45;;;;;;;46.67;21.45;;;;;;;;;;5013871;28;20085;-68
2022/01/25 07:40:13;;;;;;;46.17;21.63;;;;;;;;;;5005199;28;20093;-71
2022/01/25 07:42:49;;;;;;;44.60;21.83;;;;;;;;;;5011918;28;20493;-71
2022/01/25 07:45:36;;;;;;;45.42;21.13;;;;;;;;;;5013244;28;20061;-71
2022/01/25 07:48:07;;;;;;;41.03;20.35;;;;;;;;;;5013932;28;20064;-69
2022/01/25 07:50:38;;;;;;;46.35;21.58;;;;;;;;;;5013671;28;20050;-70
2022/01/25 07:53:04;;;;;;;48.07;20.73;;;;;;;;;;5014406;28;20077;-71
2022/01/25 07:55:31;;;;;;;42.25;20.23;;;;;;;;;;5013162;28;20471;-71
2022/01/25 07:57:57;;;;;;;43.08;20.33;;;;;;;;;;5013254;28;20464;-72
2022/01/25 08:00:24;;;;;;;44.83;20.45;;;;;;;;;;5011994;28;20108;-71
2022/01/25 08:02:51;;;;;;;42.42;20.48;;;;;;;;;;5014210;28;20057;-71
2022/01/25 08:05:34;;;;;;;43.83;20.77;;;;;;;;;;5003478;28;20528;-71
2022/01/25 08:08:15;;;;;;;44.95;19.65;;;;;;;;;;5009137;28;20083;-71
2022/01/25 08:11:00;;;;;;;40.60;20.80;;;;;;;;;;5008955;28;20141;-71
2022/01/25 08:13:48;;;;;;;45.28;21.88;;;;;;;;;;5006652;28;20068;-70
2022/01/25 08:16:28;;;;;;;43.08;19.58;;;;;;;;;;4999995;28;20406;-71
2022/01/25 08:19:09;;;;;;;41.47;20.05;;;;;;;;;;5001870;28;20540;-71
2022/01/25 08:21:52;;;;;;;44.38;20.20;;;;;;;;;;5000492;28;20037;-71
2022/01/25 08:24:38;;;;;;;44.33;21.70;;;;;;;;;;5006078;28;20054;-71
2022/01/25 08:27:40;;;;;;;42.15;20.00;;;;;;;;;;5013366;28;20108;-71
2022/01/25 08:30:09;;;;;;;41.95;19.88;;;;;;;;;;5011720;28;20049;-73
2022/01/25 08:33:05;;;;;;;46.20;21.15;;;;;;;;;;4952754;28;20082;-72
2022/01/25 08:35:52;;;;;;;;;;;;;;;;;;4994784;28;20054;-72
2022/01/25 08:38:35;;;;;;;47.08;22.20;;;;;;;;;;5002750;28;20321;-72
2022/01/25 08:41:17;;;;;;;41.03;20.40;;;;;;;;;;5010771;28;20085;-71
2022/01/25 08:44:12;;;;;;;42.78;19.67;;;;;;;;;;4932887;29;20059;-71
2022/01/25 08:46:41;;;;;;;45.83;20.73;;;;;;;;;;4933289;29;20079;-70
2022/01/25 08:49:22;;;;;;;46.60;22.10;;;;;;;;;;4932559;29;20090;-70
2022/01/25 08:52:03;;;;;;;44.55;20.20;;;;;;;;;;4929401;29;20067;-71
2022/01/25 08:54:34;;;;;;;46.28;21.45;;;;;;;;;;4932784;29;20052;-71
2022/01/25 08:57:15;;;;;;;45.38;20.38;;;;;;;;;;4858074;29;20058;-71
2022/01/25 08:59:56;;;;;;;45.42;20.88;;;;;;;;;;4850498;29;20064;-71
2022/01/25 09:02:22;;;;;;;47.25;21.63;;;;;;;;;;4891734;29;20446;-71
2022/01/25 09:04:49;;;;;;;47.90;21.17;;;;;;;;;;4932503;29;20052;-71
2022/01/25 09:07:15;;;;;;;44.33;21.48;;;;;;;;;;4932639;29;20579;-71
2022/01/25 09:09:42;;;;;;;46.53;21.55;;;;;;;;;;4932255;29;20087;-71
2022/01/25 09:12:09;;;;;;;53.47;24.65;;;;;;;;;;4932779;29;20052;-71
2022/01/25 09:14:35;;;;;;;48.83;23.00;;;;;;;;;;4931812;29;20047;-71
2022/01/25 09:17:02;;;;;;;46.85;21.05;;;;;;;;;;4932161;29;20048;-70
2022/01/25 09:19:29;;;;;;;45.13;21.30;;;;;;;;;;5007709;28;20050;-70
2022/01/25 09:21:56;;;;;;;51.72;24.58;;;;;;;;;;5004997;28;20046;-71
2022/01/25 09:24:22;;;;;;;50.40;23.00;;;;;;;;;;5009421;28;20084;-70
2022/01/25 09:26:49;;;;;;;44.30;21.27;;;;;;;;;;4999590;28;20050;-70
2022/01/25 09:29:15;;;;;;;47.38;22.52;;;;;;;;;;5012010;28;20046;-70
2022/01/25 09:31:41;;;;;;;45.55;20.50;;;;;;;;;;5010620;28;20172;-70
2022/01/25 09:34:08;;;;;;;47.15;21.50;;;;;;;;;;5011845;28;20056;-70
2022/01/25 09:36:34;;;;;;;47.78;22.13;;;;;;;;;;5011720;28;20077;-69
2022/01/25 09:39:01;;;;;;;45.45;20.85;;;;;;;;;;5012061;28;20058;-69
2022/01/25 09:41:29;;;;;;;43.85;20.33;;;;;;;;;;5011605;28;20506;-69
2022/01/25 09:43:55;;;;;;;42.30;19.52;;;;;;;;;;5011766;28;20228;-70
2022/01/25 09:46:22;;;;;;;45.92;20.73;;;;;;;;;;5011838;28;20053;-70
2022/01/25 09:48:49;;;;;;;44.22;19.92;;;;;;;;;;5011821;28;20478;-70
2022/01/25 09:51:17;;;;;;;41.42;18.75;;;;;;;;;;5011010;28;20060;-70
2022/01/25 09:53:43;;;;;;;49.08;21.80;;;;;;;;;;5011687;28;20095;-71
2022/01/25 09:56:10;;;;;;;49.58;22.15;;;;;;;;;;5011746;28;20057;-70
2022/01/25 09:58:36;;;;;;;46.40;21.65;;;;;;;;;;5011231;28;20053;-70
2022/01/25 10:01:04;;;;;;;46.78;23.33;;;;;;;;;;5010640;28;20100;-70
2022/01/25 10:03:34;;;;;;;;;;;;;;;;;;5011781;28;20128;-70
2022/01/25 10:06:02;;;;;;;44.75;20.38;;;;;;;;;;5011699;28;19921;-70
2022/01/25 10:08:33;;;;;;;45.70;20.58;;;;;;;;;;5011267;28;20493;-70
2022/01/25 10:11:01;;;;;;;42.88;20.67;;;;;;;;;;5011250;28;20054;-70
2022/01/25 10:13:36;;;;;;;45.03;21.02;;;;;;;;;;5011170;28;20100;-70
2022/01/25 10:16:03;;;;;;;44.10;19.55;;;;;;;;;;5011093;28;20104;-70
2022/01/25 10:18:50;;;;;;;45.53;20.52;;;;;;;;;;5011254;28;20133;-70
2022/01/25 10:21:21;;;;;;;44.85;19.98;;;;;;;;;;5007396;28;20453;-70
2022/01/25 10:24:06;;;;;;;48.67;21.33;;;;;;;;;;5011150;28;20559;-70
2022/01/25 10:26:39;;;;;;;45.88;20.55;;;;;;;;;;5009142;28;20418;-70
2022/01/25 10:29:14;;;;;;;46.72;24.45;;;;;;;;;;4998322;28;20120;-70
2022/01/25 10:31:45;;;;;;;43.67;22.10;;;;;;;;;;5009843;28;20096;-70
2022/01/25 10:34:13;;;;;;;51.05;24.83;;;;;;;;;;5010406;28;20052;-70
2022/01/25 10:36:45;;;;;;;45.92;23.30;;;;;;;;;;5011734;28;20402;-70
2022/01/25 10:39:20;;;;;;;45.53;22.42;;;;;;;;;;5009683;28;20050;-70
2022/01/25 10:41:46;;;;;;;44.63;21.95;;;;;;;;;;5011639;28;20054;-70
2022/01/25 10:44:13;;;;;;;49.70;25.52;;;;;;;;;;5010150;28;20050;-70
2022/01/25 10:46:40;;;;;;;49.40;23.98;;;;;;;;;;5010571;28;20088;-70
2022/01/25 10:49:13;;;;;;;54.17;25.15;;;;;;;;;;5008962;28;20045;-70
2022/01/25 10:51:41;;;;;;;51.30;22.52;;;;;;;;;;5011337;28;20042;-70
2022/01/25 10:54:08;;;;;;;49.03;24.17;;;;;;;;;;5002855;28;20046;-70
2022/01/25 10:56:42;;;;;;;54.63;25.70;;;;;;;;;;5008009;28;20050;-71
2022/01/25 10:59:12;;;;;;;47.63;23.30;;;;;;;;;;5009709;28;20057;-71
2022/01/25 11:01:39;;;;;;;44.58;21.20;;;;;;;;;;5011048;28;20486;-71
2022/01/25 11:04:10;;;;;;;50.97;22.77;;;;;;;;;;5014325;28;20052;-71
2022/01/25 11:06:38;;;;;;;43.45;19.38;;;;;;;;;;5013562;28;20084;-71
2022/01/25 11:09:06;;;;;;;44.63;20.95;;;;;;;;;;5014239;28;20108;-71
2022/01/25 11:11:37;;;;;;;45.45;21.23;;;;;;;;;;5014872;28;20104;-71
2022/01/25 11:16:49;;;;;;;44.83;20.08;;;;;;;;;;5014526;28;20041;-72
2022/01/25 11:19:15;;;;;;;42.40;19.23;;;;;;;;;;5012848;28;20140;-72
2022/01/25 11:21:43;;;;;;;43.42;19.60;;;;;;;;;;5014005;28;20096;-72
2022/01/25 11:24:12;;;;;;;44.45;20.90;;;;;;;;;;5014323;28;20104;-71
2022/01/25 11:26:40;;;;;;;41.72;20.30;;;;;;;;;;5014002;28;20120;-72
2022/01/25 11:29:07;;;;;;;50.70;25.67;;;;;;;;;;5013132;28;20046;-72
2022/01/25 11:31:34;;;;;;;52.40;27.67;;;;;;;;;;5013523;28;20042;-71
2022/01/25 11:34:01;;;;;;;45.35;23.38;;;;;;;;;;5014133;28;20073;-71
2022/01/25 11:36:30;;;;;;;50.80;27.38;;;;;;;;;;5011401;28;20099;-72
2022/01/25 11:38:57;;;;;;;46.92;26.40;;;;;;;;;;5004896;28;20100;-71
2022/01/25 11:41:25;;;;;;;45.45;23.13;;;;;;;;;;5012045;28;20050;-71
2022/01/25 11:44:10;;;;;;;42.17;20.13;;;;;;;;;;5003868;28;20052;-71
2022/01/25 11:46:38;;;;;;;43.50;20.27;;;;;;;;;;5009922;28;20050;-71
2022/01/25 11:49:05;;;;;;;;;;;;;;;;;;5006202;28;20049;-71
2022/01/25 11:51:33;;;;;;;45.92;20.45;;;;;;;;;;5013879;28;20332;-72
2022/01/25 11:54:01;;;;;;;46.92;25.60;;;;;;;;;;5012858;28;20042;-71
2022/01/25 11:56:27;;;;;;;45.95;21.73;;;;;;;;;;5012901;28;20112;-71
2022/01/25 11:58:58;;;;;;;47.00;22.42;;;;;;;;;;5013554;28;20096;-71
2022/01/25 12:01:26;;;;;;;47.35;21.83;;;;;;;;;;5013448;28;20469;-71
2022/01/25 12:03:56;;;;;;;49.83;23.27;;;;;;;;;;5013268;28;20092;-71
2022/01/25 12:06:28;;;;;;;49.72;22.67;;;;;;;;;;5012738;28;20053;-71
2022/01/25 12:09:09;;;;;;;45.70;23.83;;;;;;;;;;5013970;28;20050;-71
2022/01/25 12:11:42;;;;;;;47.28;23.17;;;;;;;;;;5008745;28;20058;-70
2022/01/25 12:14:09;;;;;;;50.75;24.85;;;;;;;;;;5000077;28;20054;-71
2022/01/25 12:16:37;;;;;;;47.17;22.92;;;;;;;;;;5009719;28;20473;-70
2022/01/25 12:19:09;;;;;;;44.90;22.33;;;;;;;;;;5012076;28;20050;-70
2022/01/25 12:21:56;;;;;;;47.00;22.50;;;;;;;;;;5012416;28;20081;-70
2022/01/25 12:24:37;;;;;;;50.60;24.17;;;;;;;;;;5013105;28;20050;-70
2022/01/25 12:30:08;;;;;;;48.20;22.02;;;;;;;;;;5011913;28;20042;-70
2022/01/25 12:32:37;;;;;;;49.65;23.23;;;;;;;;;;5012149;28;20058;-70
2022/01/25 12:35:05;;;;;;;47.78;24.02;;;;;;;;;;5013066;28;20085;-70
2022/01/25 12:37:44;;;;;;;44.17;21.52;;;;;;;;;;5013313;28;20065;-70
2022/01/25 12:40:25;;;;;;;49.17;22.63;;;;;;;;;;5013203;28;20077;-70
2022/01/25 12:42:52;;;;;;;49.38;23.67;;;;;;;;;;5013557;28;20437;-70
2022/01/25 12:45:19;;;;;;;50.15;22.08;;;;;;;;;;5013420;28;20136;-70
2022/01/25 12:47:55;;;;;;;45.00;21.40;;;;;;;;;;5013051;28;20172;-70
2022/01/25 12:50:22;;;;;;;51.17;22.88;;;;;;;;;;5013017;28;20042;-70
2022/01/25 12:52:49;;;;;;;50.60;22.48;;;;;;;;;;5012953;28;20092;-70
2022/01/25 12:55:16;;;;;;;51.13;24.20;;;;;;;;;;5011974;28;20089;-70
2022/01/25 12:57:46;;;;;;;45.92;22.15;;;;;;;;;;5013469;28;20056;-70
2022/01/25 13:00:13;;;;;;;52.13;23.23;;;;;;;;;;5007127;28;20050;-70
2022/01/25 13:02:39;;;;;;;51.78;25.15;;;;;;;;;;5013180;28;20050;-70
2022/01/25 13:05:16;;;;;;;52.33;25.60;;;;;;;;;;5012819;28;20050;-70
2022/01/25 13:07:43;;;;;;;51.10;23.07;;;;;;;;;;5011955;28;20058;-70
2022/01/25 13:10:12;;;;;;;50.25;23.92;;;;;;;;;;5012853;28;20445;-71
2022/01/25 13:12:55;;;;;;;48.85;22.65;;;;;;;;;;5012701;28;20122;-71
2022/01/25 13:16:06;;;;;;;50.75;23.48;;;;;;;;;;5012762;28;20050;-71
2022/01/25 13:18:14;;;;;;;50.63;21.85;;;;;;;;;;5012163;28;20073;-72
2022/01/25 13:20:42;;;;;;;48.58;22.20;;;;;;;;;;5012457;28;20556;-71
2022/01/25 13:23:09;;;;;;;47.28;21.48;;;;;;;;;;5012012;28;20116;-71
2022/01/25 13:28:32;;;;;;;50.13;21.83;;;;;;;;;;5011816;28;20072;-69
2022/01/25 13:31:15;;;;;;;46.70;22.45;;;;;;;;;;5011084;28;20128;-70
2022/01/25 13:33:41;;;;;;;51.90;24.02;;;;;;;;;;5011731;28;20497;-70
2022/01/25 13:36:12;;;;;;;49.40;22.80;;;;;;;;;;5011759;28;20054;-70
2022/01/25 13:38:40;;;;;;;47.42;22.23;;;;;;;;;;5012026;28;20050;-70
2022/01/25 13:46:33;;;;;;;53.50;23.40;;;;;;;;;;5011679;28;20557;-71
2022/01/25 13:49:05;;;;;;;49.47;23.33;;;;;;;;;;5010855;28;20548;-71
2022/01/25 13:51:37;;;;;;;51.13;23.25;;;;;;;;;;5011218;28;20046;-72
2022/01/25 13:54:03;;;;;;;52.80;24.17;;;;;;;;;;5000550;28;20440;-70
2022/01/25 13:56:31;;;;;;;46.92;22.33;;;;;;;;;;5010678;28;20049;-71
2022/01/25 13:58:59;;;;;;;53.25;23.13;;;;;;;;;;5011369;28;20081;-71
2022/01/25 14:01:27;;;;;;;;;;;;;;;;;;5012076;28;20569;-71
2022/01/25 14:03:53;;;;;;;;;;;;;;;;;;5011788;28;19921;-71
2022/01/25 14:06:40;;;;;;;47.30;21.25;;;;;;;;;;5003447;28;20012;-73
2022/01/25 14:09:06;;;;;;;49.65;23.35;;;;;;;;;;4994529;28;20078;-70
2022/01/25 14:25:00;;;;;;;51.28;21.65;;;;;;;;;;5011337;28;20096;-70
2022/01/25 14:27:30;;;;;;;50.42;22.08;;;;;;;;;;5011362;28;20142;-70
2022/01/25 14:29:56;;;;;;;50.90;23.13;;;;;;;;;;5011033;28;20501;-70
2022/01/25 14:32:35;;;;;;;48.35;22.58;;;;;;;;;;5011167;28;20552;-70
2022/01/25 14:35:09;;;;;;;51.70;23.90;;;;;;;;;;5011443;28;20046;-71
2022/01/25 14:37:46;;;;;;;52.25;23.67;;;;;;;;;;5013006;28;20449;-70
2022/01/25 14:40:13;;;;;;;53.42;24.65;;;;;;;;;;5015493;28;20112;-70
2022/01/25 14:42:43;;;;;;;47.87;23.90;;;;;;;;;;5015643;28;20103;-70
2022/01/25 14:45:13;;;;;;;50.17;23.88;;;;;;;;;;5015512;28;20053;-70
2022/01/25 14:47:43;;;;;;;48.40;23.13;;;;;;;;;;5015114;28;20041;-70
2022/01/25 14:50:19;;;;;;;53.42;23.38;;;;;;;;;;5014627;28;20050;-70
2022/01/25 14:52:59;;;;;;;50.05;22.63;;;;;;;;;;5015138;28;20049;-70
2022/01/25 14:55:25;;;;;;;48.92;21.73;;;;;;;;;;5014549;28;20113;-70
2022/01/25 15:00:46;;;;;;;53.65;23.83;;;;;;;;;;5014617;28;20104;-71
2022/01/25 15:03:13;;;;;;;51.80;22.88;;;;;;;;;;5014454;28;20550;-71
2022/01/25 15:05:40;;;;;;;50.75;24.50;;;;;;;;;;5013151;28;20042;-70
2022/01/25 15:08:07;;;;;;;54.08;24.15;;;;;;;;;;5012401;28;20046;-71
2022/01/25 15:10:34;;;;;;;53.60;23.77;;;;;;;;;;5013488;28;20112;-70
2022/01/25 15:13:03;;;;;;;55.97;24.15;;;;;;;;;;5013545;28;20465;-70
2022/01/25 15:15:35;;;;;;;50.08;22.55;;;;;;;;;;5014513;28;20490;-70
2022/01/25 15:18:01;;;;;;;54.05;22.70;;;;;;;;;;5014739;28;20413;-70
2022/01/25 15:20:28;;;;;;;51.97;23.25;;;;;;;;;;5013108;28;20054;-70
2022/01/25 15:22:54;;;;;;;53.65;22.23;;;;;;;;;;5012660;28;20552;-70
2022/01/25 15:25:23;;;;;;;65.45;31.35;;;;;;;;;;5012896;28;20053;-69
2022/01/25 15:27:51;;;;;;;56.13;24.15;;;;;;;;;;5012753;28;20058;-70
2022/01/25 15:30:19;;;;;;;56.03;24.13;;;;;;;;;;5004065;28;20054;-69
2022/01/25 15:32:46;;;;;;;55.25;24.48;;;;;;;;;;5011763;28;20210;-69
2022/01/25 15:35:12;;;;;;;57.33;25.38;;;;;;;;;;5013426;28;20093;-70
2022/01/25 15:37:40;;;;;;;56.10;23.92;;;;;;;;;;5014406;28;20049;-70
2022/01/25 15:40:06;;;;;;;53.20;23.60;;;;;;;;;;5008740;28;20422;-70
2022/01/25 15:42:35;;;;;;;53.70;22.92;;;;;;;;;;5014752;28;20099;-70
2022/01/25 15:45:11;;;;;;;55.15;23.67;;;;;;;;;;5012185;28;20100;-70
2022/01/25 15:47:37;;;;;;;55.85;23.83;;;;;;;;;;5013472;28;20077;-69
2022/01/25 15:50:04;;;;;;;54.67;26.17;;;;;;;;;;5012051;28;20084;-69
2022/01/25 15:52:31;;;;;;;52.75;23.95;;;;;;;;;;5014253;28;20099;-68
2022/01/25 15:54:58;;;;;;;53.65;24.95;;;;;;;;;;5009363;28;20046;-69
2022/01/25 15:57:24;;;;;;;50.28;22.98;;;;;;;;;;5013556;28;20049;-68
2022/01/25 15:59:51;;;;;;;55.97;24.08;;;;;;;;;;5010647;28;20050;-68
2022/01/25 16:02:17;;;;;;;52.92;22.95;;;;;;;;;;5010804;28;20077;-68
2022/01/25 16:04:45;;;;;;;53.00;23.33;;;;;;;;;;5013713;28;20053;-68
2022/01/25 16:07:19;;;;;;;56.63;23.67;;;;;;;;;;5012818;28;20053;-67
2022/01/25 16:09:51;;;;;;;61.33;24.30;;;;;;;;;;5012903;28;20803;-68
2022/01/25 16:12:17;;;;;;;59.03;25.40;;;;;;;;;;5013372;28;20192;-68
2022/01/25 16:14:44;;;;;;;57.80;23.98;;;;;;;;;;5012963;28;20064;-69
2022/01/25 16:17:10;;;;;;;56.10;24.27;;;;;;;;;;5013102;28;20038;-68
2022/01/25 16:19:37;;;;;;;55.53;23.15;;;;;;;;;;5012989;28;20108;-69
2022/01/25 16:22:03;;;;;;;53.05;22.80;;;;;;;;;;5013142;28;20065;-69
2022/01/25 16:24:30;;;;;;;71.10;30.75;;;;;;;;;;5012953;28;20076;-69
2022/01/25 16:26:57;;;;;;;57.35;24.48;;;;;;;;;;5012558;28;20053;-69
2022/01/25 16:29:23;;;;;;;57.83;23.50;;;;;;;;;;5012446;28;20521;-67
2022/01/25 16:31:50;;;;;;;52.45;22.45;;;;;;;;;;5012693;28;20104;-68
2022/01/25 16:34:17;;;;;;;52.70;23.13;;;;;;;;;;5012436;28;20054;-69
2022/01/25 16:36:43;;;;;;;61.13;24.92;;;;;;;;;;5011267;28;20516;-69
2022/01/25 16:39:11;;;;;;;51.65;24.10;;;;;;;;;;5012611;28;20100;-68
2022/01/25 16:41:38;;;;;;;57.30;24.90;;;;;;;;;;5012893;28;20080;-68